Time;durP1;ratioP1;P1;durP2;ratioP2;P2;SDS_P1;SDS_P2;PMS_P1;PMS_P2;Temp;Humidity;BMP_temperature;BMP_pressure;BME280_temperature;BME280_humidity;BME280_pressure;Samples;Min_cycle;Max_cycle;Signal;HPM_P1;HPM_P2
2022/01/04 00:00:28;;;;;;;14.98;4.13;;;8.90;99.90;;;;;;5093950;28;20145;-72
2022/01/04 00:02:55;;;;;;;14.55;4.45;;;8.80;99.90;;;;;;5091596;28;20114;-72
2022/01/04 00:05:21;;;;;;;19.20;4.00;;;8.80;99.90;;;;;;5092162;28;20432;-71
2022/01/04 00:07:46;;;;;;;16.75;4.20;;;8.90;99.90;;;;;;5111912;28;20192;-71
2022/01/04 00:10:12;;;;;;;9.25;3.30;;;8.90;99.90;;;;;;5095359;28;20126;-72
2022/01/04 00:15:22;;;;;;;7.93;3.25;;;8.90;99.90;;;;;;5091850;28;20047;-72
2022/01/04 00:17:48;;;;;;;14.63;4.50;;;8.90;99.90;;;;;;5109409;28;20036;-72
2022/01/04 00:20:14;;;;;;;17.35;4.47;;;9.00;99.90;;;;;;5091921;28;20484;-72
2022/01/04 00:22:39;;;;;;;17.17;4.55;;;9.00;99.90;;;;;;5092107;28;20039;-72
2022/01/04 00:25:06;;;;;;;15.70;4.70;;;9.00;99.90;;;;;;5146908;27;20039;-71
2022/01/04 00:27:32;;;;;;;15.48;4.38;;;8.90;99.90;;;;;;5096269;28;20044;-72
2022/01/04 00:29:57;;;;;;;17.45;5.60;;;8.90;99.90;;;;;;5092125;28;20042;-72
2022/01/04 00:32:23;;;;;;;18.02;4.90;;;8.90;99.90;;;;;;5124511;28;20085;-72
2022/01/04 00:34:49;;;;;;;16.13;4.63;;;9.00;99.90;;;;;;5095053;28;20035;-72
2022/01/04 00:37:15;;;;;;;13.23;3.90;;;9.00;99.90;;;;;;5094638;28;20039;-71
2022/01/04 00:39:41;;;;;;;17.95;5.72;;;8.90;99.90;;;;;;5112387;28;20407;-72
2022/01/04 00:42:06;;;;;;;21.90;5.90;;;8.90;99.90;;;;;;5084454;28;20031;-72
2022/01/04 00:44:32;;;;;;;16.15;5.57;;;8.70;99.90;;;;;;5091553;28;20040;-72
2022/01/04 00:46:59;;;;;;;18.90;4.65;;;8.80;99.90;;;;;;5126316;27;20424;-72
2022/01/04 00:49:24;;;;;;;20.15;5.00;;;8.90;99.90;;;;;;5091652;28;20051;-72
2022/01/04 00:51:52;;;;;;;12.55;3.83;;;9.10;99.90;;;;;;5123893;27;20044;-72
2022/01/04 00:54:18;;;;;;;15.88;4.50;;;9.00;99.90;;;;;;5074324;28;20089;-72
2022/01/04 00:56:45;;;;;;;13.98;4.60;;;9.00;99.90;;;;;;5109189;28;20048;-72
2022/01/04 00:59:11;;;;;;;16.42;4.70;;;8.90;99.90;;;;;;5104891;28;20081;-71
2022/01/04 01:01:38;;;;;;;16.83;4.00;;;9.00;99.90;;;;;;5106589;28;20398;-71
2022/01/04 01:04:05;;;;;;;15.82;5.10;;;9.00;99.90;;;;;;5087642;28;20190;-72
2022/01/04 01:06:31;;;;;;;19.95;5.00;;;8.90;99.90;;;;;;5091497;28;20492;-73
2022/01/04 01:08:57;;;;;;;19.13;4.70;;;8.90;99.90;;;;;;5075409;28;20050;-72
2022/01/04 01:11:23;;;;;;;16.42;4.68;;;8.90;99.90;;;;;;5087580;28;20152;-72
2022/01/04 01:13:49;;;;;;;11.23;4.18;;;8.90;99.90;;;;;;5101410;27;20035;-72
2022/01/04 01:16:15;;;;;;;15.75;4.32;;;9.10;99.90;;;;;;5135981;27;20529;-72
2022/01/04 01:18:41;;;;;;;15.77;4.57;;;9.00;99.90;;;;;;5102412;28;20063;-72
2022/01/04 01:21:07;;;;;;;16.73;4.68;;;9.00;99.90;;;;;;5132571;27;20500;-72
2022/01/04 01:23:34;;;;;;;19.25;5.93;;;8.90;99.90;;;;;;5112511;27;20420;-72
2022/01/04 01:26:02;;;;;;;15.65;4.00;;;8.90;99.90;;;;;;5115573;28;20446;-72
2022/01/04 01:28:27;;;;;;;19.25;4.95;;;9.00;99.90;;;;;;5148173;27;20050;-72
2022/01/04 01:30:53;;;;;;;11.70;3.58;;;9.00;99.90;;;;;;5115461;28;20043;-72
2022/01/04 01:33:19;;;;;;;14.45;3.85;;;9.00;99.90;;;;;;5113644;27;20065;-72
2022/01/04 01:35:45;;;;;;;16.52;3.78;;;9.10;99.90;;;;;;5115006;28;20082;-72
2022/01/04 01:38:14;;;;;;;15.18;4.10;;;9.10;99.90;;;;;;5106633;27;20400;-72
2022/01/04 01:40:40;;;;;;;17.88;5.00;;;9.10;99.90;;;;;;5094586;28;20039;-72
2022/01/04 01:43:07;;;;;;;15.50;4.38;;;9.00;99.90;;;;;;5084977;28;20406;-72
2022/01/04 01:45:33;;;;;;;13.68;3.80;;;9.00;99.90;;;;;;5112861;28;20453;-72
2022/01/04 01:47:59;;;;;;;20.00;5.13;;;9.10;99.90;;;;;;5110503;27;20054;-71
2022/01/04 01:50:25;;;;;;;20.83;4.90;;;8.90;99.90;;;;;;5094397;28;20044;-72
2022/01/04 01:52:52;;;;;;;18.23;5.60;;;8.90;99.90;;;;;;5078009;27;20046;-72
2022/01/04 01:55:19;;;;;;;23.38;5.82;;;8.90;99.90;;;;;;5077401;28;20075;-72
2022/01/04 01:57:46;;;;;;;19.20;5.22;;;9.00;99.90;;;;;;5096350;27;20067;-72
2022/01/04 02:00:14;;;;;;;17.17;5.57;;;8.90;99.90;;;;;;5114624;28;20031;-72
2022/01/04 02:02:40;;;;;;;16.17;4.50;;;8.80;99.90;;;;;;5113731;28;20497;-72
2022/01/04 02:05:07;;;;;;;18.02;4.88;;;8.90;99.90;;;;;;5099679;28;20399;-72
2022/01/04 02:07:33;;;;;;;18.27;5.00;;;8.90;99.90;;;;;;5114493;28;20046;-71
2022/01/04 02:10:05;;;;;;;17.55;4.55;;;8.90;99.90;;;;;;5095985;28;20035;-72
2022/01/04 02:12:33;;;;;;;17.63;5.22;;;8.90;99.90;;;;;;5097545;28;20386;-71
2022/01/04 02:14:59;;;;;;;16.40;4.28;;;8.90;99.90;;;;;;5111335;28;20066;-72
2022/01/04 02:17:26;;;;;;;17.13;4.57;;;9.00;99.90;;;;;;5097310;28;20127;-72
2022/01/04 02:19:57;;;;;;;23.08;5.78;;;9.00;99.90;;;;;;5079977;28;20124;-72
2022/01/04 02:22:23;;;;;;;16.48;4.45;;;8.80;99.90;;;;;;5076144;28;20036;-72
2022/01/04 02:24:49;;;;;;;16.60;4.88;;;8.90;99.90;;;;;;5125892;27;20039;-72
2022/01/04 02:27:15;;;;;;;13.35;4.60;;;8.90;99.90;;;;;;5097300;28;20047;-72
2022/01/04 02:29:41;;;;;;;19.75;5.63;;;8.90;99.90;;;;;;5099735;28;20059;-72
2022/01/04 02:32:07;;;;;;;17.85;5.40;;;9.10;99.90;;;;;;5094320;28;20127;-72
2022/01/04 02:34:32;;;;;;;14.32;4.70;;;9.10;99.90;;;;;;5093528;28;20036;-71
2022/01/04 02:36:59;;;;;;;10.10;3.50;;;9.10;99.90;;;;;;5093686;28;20089;-72
2022/01/04 02:39:24;;;;;;;23.10;7.13;;;9.10;99.90;;;;;;5098399;28;20039;-72
2022/01/04 02:41:50;;;;;;;17.08;5.93;;;9.10;99.90;;;;;;5094283;28;20036;-72
2022/01/04 02:44:15;;;;;;;24.65;7.03;;;9.00;99.90;;;;;;5109428;28;20483;-71
2022/01/04 02:46:41;;;;;;;15.70;5.45;;;9.00;99.90;;;;;;5126852;27;20109;-72
2022/01/04 02:49:07;;;;;;;16.80;5.38;;;9.10;99.90;;;;;;5093235;28;20051;-72
2022/01/04 02:51:32;;;;;;;17.10;5.80;;;9.10;99.90;;;;;;5089186;28;20040;-72
2022/01/04 02:53:58;;;;;;;15.00;6.00;;;9.10;99.90;;;;;;5147784;27;20177;-73
2022/01/04 02:56:23;;;;;;;21.65;6.70;;;8.90;99.90;;;;;;5116598;27;20122;-73
2022/01/04 02:58:49;;;;;;;22.33;7.05;;;8.80;99.90;;;;;;5118361;27;20126;-72
2022/01/04 03:01:14;;;;;;;20.05;5.45;;;8.70;99.90;;;;;;5109823;28;20057;-73
2022/01/04 03:03:40;;;;;;;16.80;6.80;;;8.80;99.90;;;;;;5081667;28;20446;-72
2022/01/04 03:06:06;;;;;;;18.05;6.38;;;8.80;99.90;;;;;;5092538;27;20048;-72
2022/01/04 03:08:31;;;;;;;20.65;7.00;;;8.80;99.90;;;;;;5115692;27;20052;-72
2022/01/04 03:10:57;;;;;;;17.95;6.45;;;8.80;99.90;;;;;;5079844;27;20047;-72
2022/01/04 03:13:22;;;;;;;20.42;6.78;;;8.90;99.90;;;;;;5065753;27;20499;-72
2022/01/04 03:15:48;;;;;;;19.30;6.00;;;8.90;99.90;;;;;;5059008;28;20036;-71
2022/01/04 03:18:14;;;;;;;21.15;6.47;;;9.00;99.90;;;;;;5072240;27;20039;-72
2022/01/04 03:20:40;;;;;;;19.13;7.07;;;8.90;99.90;;;;;;5084186;27;20079;-72
2022/01/04 03:23:09;;;;;;;15.60;6.05;;;8.90;99.90;;;;;;5089787;27;20127;-72
2022/01/04 03:25:36;;;;;;;17.25;5.85;;;8.90;99.90;;;;;;5088305;27;20051;-72
2022/01/04 03:28:03;;;;;;;17.35;5.47;;;9.00;99.90;;;;;;5092894;27;20166;-72
2022/01/04 03:30:29;;;;;;;18.95;6.30;;;9.10;99.90;;;;;;5070100;28;20040;-72
2022/01/04 03:32:54;;;;;;;17.08;6.50;;;9.00;99.90;;;;;;5098430;27;20062;-72
2022/01/04 03:35:21;;;;;;;22.35;7.03;;;9.00;99.90;;;;;;5085219;27;20109;-72
2022/01/04 03:37:47;;;;;;;17.98;6.38;;;8.90;99.90;;;;;;5075691;28;20050;-72
2022/01/04 03:40:13;;;;;;;16.55;7.20;;;8.80;99.90;;;;;;5092826;27;20105;-72
2022/01/04 03:42:39;;;;;;;19.83;6.63;;;8.80;99.90;;;;;;5089163;28;20031;-72
2022/01/04 03:45:05;;;;;;;19.70;7.25;;;8.80;99.90;;;;;;5087248;27;20105;-72
2022/01/04 03:47:31;;;;;;;18.92;6.78;;;8.70;99.90;;;;;;5097799;27;20043;-72
2022/01/04 03:49:57;;;;;;;17.83;6.63;;;8.70;99.90;;;;;;5100310;27;20572;-72
2022/01/04 03:52:22;;;;;;;21.38;7.22;;;8.80;99.90;;;;;;5098072;27;20095;-72
2022/01/04 03:54:48;;;;;;;20.80;7.07;;;8.90;99.90;;;;;;5086379;27;20713;-72
2022/01/04 03:57:13;;;;;;;18.25;8.18;;;8.90;99.90;;;;;;5128687;27;20506;-72
2022/01/04 03:59:39;;;;;;;18.35;7.43;;;8.90;99.90;;;;;;5136481;27;20070;-72
2022/01/04 04:02:05;;;;;;;19.20;6.63;;;8.90;99.90;;;;;;5129807;27;20069;-72
2022/01/04 04:04:30;;;;;;;16.02;7.35;;;9.00;99.90;;;;;;5111516;28;20040;-72
2022/01/04 04:06:56;;;;;;;20.30;7.47;;;9.00;99.90;;;;;;5146750;27;20124;-72
2022/01/04 04:09:22;;;;;;;17.30;7.63;;;9.00;99.90;;;;;;5145260;27;20126;-72
2022/01/04 04:11:47;;;;;;;18.67;7.35;;;9.00;99.90;;;;;;5109844;28;20500;-72
2022/01/04 04:14:13;;;;;;;20.65;8.90;;;9.00;99.90;;;;;;5125941;28;20048;-72
2022/01/04 04:16:39;;;;;;;21.45;8.85;;;9.00;99.90;;;;;;5090601;28;20047;-72
2022/01/04 04:19:04;;;;;;;21.85;9.00;;;9.00;99.90;;;;;;5091499;28;20043;-72
2022/01/04 04:21:30;;;;;;;19.48;8.27;;;9.00;99.90;;;;;;5112344;28;20035;-72
2022/01/04 04:23:55;;;;;;;21.90;10.27;;;9.00;99.90;;;;;;5140726;27;20032;-72
2022/01/04 04:26:21;;;;;;;19.83;8.27;;;9.00;99.90;;;;;;5092102;28;20054;-72
2022/01/04 04:28:46;;;;;;;24.77;9.25;;;9.00;99.90;;;;;;5094833;28;20035;-72
2022/01/04 04:31:12;;;;;;;20.20;9.65;;;8.90;99.90;;;;;;5109736;28;20411;-72
2022/01/04 04:33:38;;;;;;;17.80;9.07;;;9.00;99.90;;;;;;5146632;27;20042;-72
2022/01/04 04:36:03;;;;;;;20.38;9.15;;;9.00;99.90;;;;;;5094166;28;20071;-72
2022/01/04 04:38:29;;;;;;;19.92;9.32;;;9.00;99.90;;;;;;5095361;28;20096;-72
2022/01/04 04:40:55;;;;;;;23.20;10.10;;;9.00;99.90;;;;;;5144249;27;20510;-72
2022/01/04 04:43:20;;;;;;;18.00;9.73;;;8.90;99.90;;;;;;5084290;28;20388;-72
2022/01/04 04:45:46;;;;;;;20.95;8.73;;;8.90;99.90;;;;;;5097964;27;20084;-72
2022/01/04 04:48:12;;;;;;;18.83;9.40;;;8.90;99.90;;;;;;5089077;28;20079;-72
2022/01/04 04:50:38;;;;;;;26.38;10.57;;;8.90;99.90;;;;;;5071393;28;20693;-72
2022/01/04 04:53:04;;;;;;;20.92;10.98;;;8.80;99.90;;;;;;5069008;28;20503;-72
2022/01/04 04:55:30;;;;;;;25.33;10.18;;;8.70;99.90;;;;;;5088316;28;20331;-72
2022/01/04 04:57:56;;;;;;;22.25;8.68;;;8.70;99.90;;;;;;5081644;28;20039;-72
2022/01/04 05:00:22;;;;;;;28.08;10.05;;;8.90;99.90;;;;;;5095254;28;20032;-72
2022/01/04 05:02:47;;;;;;;22.17;9.13;;;8.90;99.90;;;;;;5115570;28;20054;-72
2022/01/04 05:05:13;;;;;;;18.75;9.32;;;8.90;99.90;;;;;;5112271;28;20091;-72
2022/01/04 05:07:38;;;;;;;20.40;8.73;;;8.90;99.90;;;;;;5115742;28;20122;-72
2022/01/04 05:10:06;;;;;;;22.50;8.82;;;8.90;99.90;;;;;;5097601;28;20035;-72
2022/01/04 05:12:32;;;;;;;20.67;9.80;;;8.90;99.90;;;;;;5098519;27;20164;-72
2022/01/04 05:14:58;;;;;;;20.98;8.65;;;8.80;99.90;;;;;;5087140;28;20040;-73
2022/01/04 05:17:23;;;;;;;21.40;8.88;;;8.70;99.90;;;;;;5093257;28;20561;-72
2022/01/04 05:19:49;;;;;;;20.50;8.95;;;8.90;99.90;;;;;;5093267;28;20035;-72
2022/01/04 05:22:15;;;;;;;23.05;9.30;;;8.80;99.90;;;;;;5117769;27;20476;-73
2022/01/04 05:24:40;;;;;;;20.08;9.23;;;8.70;99.90;;;;;;5073926;28;20035;-73
2022/01/04 05:27:06;;;;;;;21.75;9.02;;;8.60;99.90;;;;;;5071473;28;20093;-72
2022/01/04 05:29:31;;;;;;;20.25;8.95;;;8.60;99.90;;;;;;5100823;27;20043;-73
2022/01/04 05:31:57;;;;;;;23.40;8.43;;;8.60;99.90;;;;;;5090158;28;20079;-72
2022/01/04 05:34:25;;;;;;;19.60;8.27;;;8.70;99.90;;;;;;5070007;28;20717;-72
2022/01/04 05:36:51;;;;;;;18.35;8.35;;;8.80;99.90;;;;;;5090536;28;20031;-72
2022/01/04 05:39:17;;;;;;;23.20;8.93;;;8.90;99.90;;;;;;5072766;28;20043;-72
2022/01/04 05:41:42;;;;;;;26.67;8.85;;;8.90;99.90;;;;;;5089000;28;20457;-72
2022/01/04 05:44:08;;;;;;;19.10;8.98;;;8.80;99.90;;;;;;5089046;28;20081;-72
2022/01/04 05:46:33;;;;;;;18.88;8.10;;;8.80;99.90;;;;;;5117349;27;20079;-72
2022/01/04 05:48:59;;;;;;;19.48;8.50;;;8.90;99.90;;;;;;5076191;28;20898;-72
2022/01/04 05:51:25;;;;;;;19.45;8.05;;;8.90;99.90;;;;;;5116817;27;20039;-72
2022/01/04 05:53:50;;;;;;;17.30;8.15;;;9.00;99.90;;;;;;5121633;27;20043;-72
2022/01/04 05:56:16;;;;;;;19.40;7.63;;;8.90;99.90;;;;;;5066425;28;20039;-72
2022/01/04 05:58:41;;;;;;;22.75;9.10;;;8.90;99.90;;;;;;5106943;27;20039;-72
2022/01/04 06:01:07;;;;;;;20.90;8.45;;;8.90;99.90;;;;;;5137220;27;20088;-72
2022/01/04 06:03:33;;;;;;;18.00;8.52;;;8.90;99.90;;;;;;5113429;28;20038;-72
2022/01/04 06:05:59;;;;;;;17.75;8.60;;;9.00;99.90;;;;;;5144407;27;20040;-72
2022/01/04 06:08:30;;;;;;;23.23;9.27;;;8.90;99.90;;;;;;5098032;28;20071;-72
2022/01/04 06:10:56;;;;;;;18.45;8.13;;;8.90;99.90;;;;;;5114815;28;20388;-72
2022/01/04 06:16:05;;;;;;;17.48;7.72;;;9.00;99.90;;;;;;5113898;28;20437;-72
2022/01/04 06:18:31;;;;;;;15.80;6.38;;;9.00;99.90;;;;;;5113874;28;20031;-72
2022/01/04 06:20:57;;;;;;;24.25;8.55;;;9.10;99.90;;;;;;5097237;28;20058;-72
2022/01/04 06:23:22;;;;;;;23.63;9.82;;;9.00;99.90;;;;;;5113297;28;20372;-72
2022/01/04 06:25:48;;;;;;;19.25;8.25;;;8.90;99.90;;;;;;5128492;27;20457;-72
2022/01/04 06:28:15;;;;;;;19.15;8.18;;;8.80;99.90;;;;;;5113983;28;20525;-72
2022/01/04 06:30:41;;;;;;;22.13;8.30;;;8.90;99.90;;;;;;5110881;28;20118;-72
2022/01/04 06:33:06;;;;;;;20.40;9.23;;;8.90;99.90;;;;;;5118086;27;20104;-72
2022/01/04 06:35:37;;;;;;;22.25;9.05;;;9.00;99.90;;;;;;5087044;28;20216;-72
2022/01/04 06:38:03;;;;;;;16.58;8.75;;;8.90;99.90;;;;;;5070123;28;20557;-72
2022/01/04 06:40:29;;;;;;;25.30;9.95;;;8.90;99.90;;;;;;5091160;28;20104;-72
2022/01/04 06:42:54;;;;;;;19.30;8.63;;;8.90;99.90;;;;;;5090979;28;20036;-72
2022/01/04 06:45:20;;;;;;;20.95;9.45;;;8.90;99.90;;;;;;5085095;28;20083;-72
2022/01/04 06:47:46;;;;;;;21.45;9.95;;;8.90;99.90;;;;;;5085870;28;20055;-72
2022/01/04 06:50:14;;;;;;;20.02;8.38;;;8.80;99.90;;;;;;5085773;28;20059;-72
2022/01/04 06:52:39;;;;;;;22.98;9.75;;;8.90;99.90;;;;;;5069814;28;20192;-72
2022/01/04 06:55:05;;;;;;;18.67;8.02;;;9.00;99.90;;;;;;5074179;28;20043;-72
2022/01/04 06:57:31;;;;;;;21.13;9.23;;;8.90;99.90;;;;;;5077205;28;20031;-72
2022/01/04 06:59:56;;;;;;;18.38;8.43;;;9.00;99.90;;;;;;5077683;28;20078;-72
2022/01/04 07:02:23;;;;;;;23.75;7.75;;;9.00;99.90;;;;;;5090831;28;20117;-72
2022/01/04 07:04:48;;;;;;;15.55;7.35;;;9.00;99.90;;;;;;5083558;28;20511;-71
2022/01/04 07:07:14;;;;;;;19.98;9.05;;;9.00;99.90;;;;;;5101762;27;20044;-72
2022/01/04 07:09:41;;;;;;;15.63;7.35;;;8.90;99.90;;;;;;5091383;28;20042;-72
2022/01/04 07:12:07;;;;;;;16.40;7.43;;;8.80;99.90;;;;;;5075627;28;20068;-72
2022/01/04 07:14:33;;;;;;;14.05;7.20;;;8.80;99.90;;;;;;5091872;28;20476;-72
2022/01/04 07:16:59;;;;;;;16.58;7.85;;;8.80;99.90;;;;;;5132454;27;20130;-72
2022/01/04 07:19:24;;;;;;;17.63;6.97;;;8.90;99.90;;;;;;5132995;27;20036;-72
2022/01/04 07:21:50;;;;;;;15.77;6.68;;;8.90;99.90;;;;;;5112774;27;20031;-72
2022/01/04 07:24:16;;;;;;;14.65;6.55;;;8.90;99.90;;;;;;5108484;28;20040;-72
2022/01/04 07:26:41;;;;;;;16.60;7.35;;;8.90;99.90;;;;;;5117653;27;20036;-72
2022/01/04 07:29:07;;;;;;;16.80;7.28;;;8.80;99.90;;;;;;5111784;28;20051;-72
2022/01/04 07:31:33;;;;;;;16.58;8.27;;;8.70;99.90;;;;;;5091956;28;20114;-72
2022/01/04 07:33:59;;;;;;;16.95;8.25;;;8.80;99.90;;;;;;5095628;27;20046;-72
2022/01/04 07:36:26;;;;;;;16.25;8.27;;;8.60;99.90;;;;;;5105022;28;20039;-72
2022/01/04 07:38:51;;;;;;;18.00;8.60;;;8.60;99.90;;;;;;5124844;27;20406;-72
2022/01/04 07:41:17;;;;;;;18.15;8.80;;;8.60;99.90;;;;;;5093242;28;20035;-72
2022/01/04 07:43:43;;;;;;;17.67;9.63;;;8.50;99.90;;;;;;5108623;28;20048;-72
2022/01/04 07:46:08;;;;;;;20.85;8.65;;;8.70;99.90;;;;;;5124953;27;20044;-72
2022/01/04 07:48:34;;;;;;;17.38;8.88;;;8.70;99.90;;;;;;5107953;28;20092;-72
2022/01/04 07:51:00;;;;;;;22.10;9.65;;;8.70;99.90;;;;;;5133891;27;20406;-72
2022/01/04 07:53:26;;;;;;;17.63;10.38;;;8.70;99.90;;;;;;5091193;28;20036;-72
2022/01/04 07:55:52;;;;;;;19.20;11.05;;;8.70;99.90;;;;;;5083035;28;20089;-72
2022/01/04 07:58:17;;;;;;;17.17;10.20;;;8.80;99.90;;;;;;5091654;28;20048;-71
2022/01/04 08:00:43;;;;;;;23.48;10.93;;;8.80;99.90;;;;;;5096107;27;20047;-72
2022/01/04 08:03:10;;;;;;;20.00;11.05;;;8.90;99.90;;;;;;5119000;27;20032;-72
2022/01/04 08:05:36;;;;;;;20.55;11.35;;;8.70;99.90;;;;;;5093433;28;20039;-72
2022/01/04 08:08:03;;;;;;;19.75;10.93;;;8.60;99.90;;;;;;5099152;28;20139;-72
2022/01/04 08:10:28;;;;;;;20.98;9.15;;;8.50;99.90;;;;;;5102118;28;20175;-72
2022/01/04 08:12:54;;;;;;;16.45;9.23;;;8.50;99.90;;;;;;5077201;28;20520;-72
2022/01/04 08:15:19;;;;;;;18.42;9.13;;;8.70;99.90;;;;;;5125503;27;20403;-72
2022/01/04 08:17:45;;;;;;;17.70;9.40;;;8.70;99.90;;;;;;5098095;28;20032;-72
2022/01/04 08:20:11;;;;;;;19.17;9.95;;;8.70;99.90;;;;;;5129229;27;20088;-72
2022/01/04 08:22:37;;;;;;;25.27;11.50;;;8.60;99.90;;;;;;5116248;27;20046;-72
2022/01/04 08:25:06;;;;;;;19.70;11.57;;;8.30;99.90;;;;;;5142770;27;20126;-73
2022/01/04 08:27:31;;;;;;;14.15;5.65;;;8.30;99.90;;;;;;5095573;28;20500;-74
2022/01/04 08:29:58;;;;;;;9.80;3.70;;;8.20;99.90;;;;;;5096542;27;20050;-74
2022/01/04 08:32:24;;;;;;;8.07;3.60;;;8.10;99.90;;;;;;5086327;28;20567;-74
2022/01/04 08:34:50;;;;;;;10.80;3.50;;;8.00;99.90;;;;;;5117311;27;20119;-74
2022/01/04 08:37:16;;;;;;;8.95;3.97;;;8.20;99.90;;;;;;5105530;27;20180;-74
2022/01/04 08:39:42;;;;;;;12.25;3.95;;;8.20;99.90;;;;;;5094245;28;20036;-73
2022/01/04 08:42:08;;;;;;;9.35;3.05;;;8.20;99.90;;;;;;5094820;28;20085;-73
2022/01/04 08:44:36;;;;;;;8.07;2.70;;;8.20;99.90;;;;;;5128112;27;20400;-73
2022/01/04 08:47:02;;;;;;;8.07;2.20;;;8.10;99.90;;;;;;5109360;27;20035;-73
2022/01/04 08:49:30;;;;;;;8.65;2.08;;;8.00;99.90;;;;;;5094129;28;20080;-73
2022/01/04 08:51:55;;;;;;;7.05;1.55;;;7.90;99.90;;;;;;5098588;27;20056;-73
2022/01/04 08:54:21;;;;;;;5.60;1.48;;;8.00;99.90;;;;;;5077329;28;20480;-80
2022/01/04 08:56:46;;;;;;;5.32;1.58;;;7.90;99.90;;;;;;5121040;27;20070;-73
2022/01/04 08:59:13;;;;;;;7.22;1.60;;;7.90;99.90;;;;;;5108626;28;20384;-73
2022/01/04 09:01:39;;;;;;;4.20;1.30;;;7.90;99.90;;;;;;5103394;27;20111;-73
2022/01/04 09:04:06;;;;;;;3.95;1.45;;;8.00;99.90;;;;;;5098817;27;20040;-73
2022/01/04 09:06:33;;;;;;;5.28;1.70;;;8.10;99.90;;;;;;5101764;28;20035;-73
2022/01/04 09:08:59;;;;;;;7.07;1.90;;;8.00;99.90;;;;;;5112567;27;20119;-72
2022/01/04 09:11:25;;;;;;;5.13;2.00;;;7.90;99.90;;;;;;5111973;27;20118;-72
2022/01/04 09:13:54;;;;;;;5.18;2.10;;;7.90;99.90;;;;;;5130787;27;20090;-73
2022/01/04 09:19:04;;;;;;;6.57;2.53;;;7.80;99.90;;;;;;5106612;27;20047;-73
2022/01/04 09:21:30;;;;;;;7.07;2.53;;;7.80;99.90;;;;;;5127562;27;20036;-72
2022/01/04 09:23:59;;;;;;;10.23;2.42;;;7.80;99.90;;;;;;5119242;27;20471;-73
2022/01/04 09:26:27;;;;;;;7.85;2.50;;;7.70;99.90;;;;;;5111971;27;20044;-73
2022/01/04 09:28:54;;;;;;;7.28;2.35;;;7.70;99.90;;;;;;5110432;27;20507;-73
2022/01/04 09:31:22;;;;;;;9.60;2.75;;;7.80;99.90;;;;;;5080509;28;20040;-73
2022/01/04 09:33:49;;;;;;;9.68;2.65;;;7.90;99.90;;;;;;5109524;27;20044;-72
2022/01/04 09:36:14;;;;;;;10.50;2.97;;;7.90;99.90;;;;;;5094216;28;20450;-73
2022/01/04 09:38:40;;;;;;;8.38;2.60;;;7.70;99.90;;;;;;5136299;27;20039;-73
2022/01/04 09:41:06;;;;;;;10.38;2.60;;;7.70;99.90;;;;;;5080011;28;20058;-73
2022/01/04 09:43:31;;;;;;;12.52;2.40;;;7.70;99.90;;;;;;5095939;28;20497;-73
2022/01/04 09:45:57;;;;;;;9.63;2.10;;;7.80;99.90;;;;;;5078289;28;20135;-73
2022/01/04 09:48:22;;;;;;;10.02;2.42;;;7.80;99.90;;;;;;5087219;28;20131;-73
2022/01/04 09:50:49;;;;;;;4.95;1.30;;;7.70;99.90;;;;;;5127057;27;20113;-73
2022/01/04 09:53:19;;;;;;;6.05;1.40;;;7.70;99.90;;;;;;5129361;27;20067;-73
2022/01/04 09:55:50;;;;;;;8.65;2.22;;;7.70;99.90;;;;;;5091743;28;20063;-73
2022/01/04 09:58:18;;;;;;;6.25;0.85;;;7.80;99.90;;;;;;5078501;28;20035;-73
2022/01/04 10:00:44;;;;;;;4.65;0.70;;;7.70;99.90;;;;;;5127228;27;20036;-73
2022/01/04 10:03:25;;;;;;;5.32;1.00;;;7.70;99.90;;;;;;5111089;27;20038;-73
2022/01/04 10:06:01;;;;;;;4.32;0.80;;;7.70;99.90;;;;;;5100622;27;20040;-73
2022/01/04 10:08:27;;;;;;;4.63;0.90;;;7.70;99.90;;;;;;5076085;28;20403;-73
2022/01/04 10:11:04;;;;;;;5.78;1.00;;;7.60;99.90;;;;;;5127713;27;20119;-73
2022/01/04 10:13:30;;;;;;;4.25;1.00;;;7.50;99.90;;;;;;5084589;28;20040;-73
2022/01/04 10:15:57;;;;;;;4.60;1.02;;;7.50;99.90;;;;;;5101879;27;20136;-73
2022/01/04 10:18:25;;;;;;;4.57;1.08;;;7.50;99.90;;;;;;5109359;28;20039;-73
2022/01/04 10:21:09;;;;;;;2.97;0.73;;;7.50;99.90;;;;;;5100449;27;20105;-73
2022/01/04 10:23:51;;;;;;;1.77;0.70;;;7.50;99.90;;;;;;5098771;28;20078;-73
2022/01/04 10:26:25;;;;;;;3.47;0.90;;;7.50;99.90;;;;;;5126934;27;20484;-73
2022/01/04 10:28:51;;;;;;;2.95;0.70;;;7.50;99.90;;;;;;5095304;28;20036;-73
2022/01/04 10:31:17;;;;;;;3.28;0.73;;;7.50;99.90;;;;;;5111253;28;20108;-73
2022/01/04 10:33:43;;;;;;;5.70;0.95;;;7.50;99.90;;;;;;5120489;27;20036;-73
2022/01/04 10:36:11;;;;;;;5.28;1.33;;;7.50;99.90;;;;;;5077031;28;20040;-73
2022/01/04 10:38:43;;;;;;;4.95;1.00;;;7.40;99.90;;;;;;5099565;28;20076;-73
2022/01/04 10:41:25;;;;;;;5.82;1.00;;;7.40;99.90;;;;;;5111038;28;20043;-73
2022/01/04 10:43:53;;;;;;;5.20;1.13;;;7.40;99.90;;;;;;5111360;27;20038;-73
2022/01/04 10:46:35;;;;;;;4.75;1.00;;;7.40;99.90;;;;;;5099613;27;20062;-73
2022/01/04 10:49:13;;;;;;;5.18;1.10;;;7.20;99.90;;;;;;5097207;27;20044;-73
2022/01/04 10:51:39;;;;;;;4.25;1.00;;;7.20;99.90;;;;;;5114686;27;20043;-73
2022/01/04 10:54:06;;;;;;;3.30;0.88;;;7.20;99.90;;;;;;5096279;28;20062;-73
2022/01/04 10:56:36;;;;;;;3.40;0.90;;;7.10;99.90;;;;;;5115168;27;20114;-73
2022/01/04 10:59:10;;;;;;;1.92;0.80;;;7.10;99.90;;;;;;5110297;27;20036;-73
2022/01/04 11:01:44;;;;;;;3.05;0.68;;;7.20;99.90;;;;;;5111542;27;20059;-73
2022/01/04 11:04:16;;;;;;;2.67;0.77;;;7.10;99.90;;;;;;5111610;27;20027;-73
2022/01/04 11:06:42;;;;;;;2.87;0.80;;;7.10;99.90;;;;;;5102928;27;20047;-73
2022/01/04 11:09:09;;;;;;;2.38;0.73;;;6.80;99.90;;;;;;5104323;27;20035;-73
2022/01/04 11:11:35;;;;;;;4.97;0.70;;;6.90;99.90;;;;;;5110764;28;20368;-73
2022/01/04 11:14:02;;;;;;;3.90;0.60;;;6.90;99.90;;;;;;5085328;28;20099;-73
2022/01/04 11:16:29;;;;;;;2.72;0.55;;;6.90;99.90;;;;;;5118157;27;20122;-73
2022/01/04 11:18:56;;;;;;;3.45;0.60;;;6.90;99.90;;;;;;5091884;28;20036;-73
2022/01/04 11:21:25;;;;;;;4.45;0.80;;;6.90;99.90;;;;;;5082043;28;20172;-73
2022/01/04 11:23:52;;;;;;;3.78;0.73;;;6.80;99.90;;;;;;5095119;28;20032;-73
2022/01/04 11:26:19;;;;;;;2.60;0.60;;;6.70;99.90;;;;;;5112323;27;20453;-73
2022/01/04 11:28:49;;;;;;;2.67;0.60;;;6.80;99.90;;;;;;5122219;27;20035;-73
2022/01/04 11:31:37;;;;;;;4.93;0.70;;;6.70;99.90;;;;;;5093123;28;20180;-73
2022/01/04 11:34:05;;;;;;;2.92;0.70;;;6.80;99.90;;;;;;5092079;28;20509;-73
2022/01/04 11:36:35;;;;;;;2.20;0.60;;;6.70;99.90;;;;;;5128423;27;20445;-73
2022/01/04 11:39:01;;;;;;;0.98;0.40;;;6.70;99.90;;;;;;5095715;28;20077;-73
2022/01/04 11:41:32;;;;;;;4.80;0.80;;;6.80;99.90;;;;;;5094844;28;20063;-73
2022/01/04 11:44:16;;;;;;;4.95;0.80;;;6.80;99.90;;;;;;5139620;27;20067;-73
2022/01/04 11:46:42;;;;;;;5.93;0.75;;;6.60;99.90;;;;;;5111393;27;20066;-73
2022/01/04 11:49:12;;;;;;;1.02;0.28;;;6.70;99.90;;;;;;5128227;27;20032;-73
2022/01/04 11:51:44;;;;;;;2.30;0.55;;;6.70;99.90;;;;;;5107228;28;20040;-73
2022/01/04 11:54:27;;;;;;;2.60;0.40;;;6.60;99.90;;;;;;5104997;28;20032;-73
2022/01/04 11:57:15;;;;;;;2.20;0.45;;;6.60;99.90;;;;;;5112405;27;20043;-73
2022/01/04 11:59:44;;;;;;;3.20;0.60;;;6.60;99.90;;;;;;5127986;27;20079;-73
2022/01/04 12:02:32;;;;;;;3.08;0.60;;;6.50;99.90;;;;;;5092124;28;20042;-73
2022/01/04 12:05:04;;;;;;;1.85;0.40;;;6.60;99.90;;;;;;5111965;28;20066;-73
2022/01/04 12:07:41;;;;;;;;;;;6.50;99.90;;;;;;5091154;28;20442;-73
2022/01/04 12:10:19;;;;;;;4.07;0.93;;;6.40;99.90;;;;;;5100188;28;19923;-74
2022/01/04 12:13:01;;;;;;;3.40;0.57;;;6.30;99.90;;;;;;5112197;28;20035;-73
2022/01/04 12:15:33;;;;;;;2.05;0.40;;;6.30;99.90;;;;;;5075146;28;20040;-73
2022/01/04 12:18:03;;;;;;;5.05;0.80;;;6.30;99.90;;;;;;5103968;28;20044;-73
2022/01/04 12:20:46;;;;;;;5.40;0.93;;;6.40;99.90;;;;;;5108979;28;20392;-73
2022/01/04 12:23:29;;;;;;;2.88;0.70;;;6.30;99.90;;;;;;5093161;28;20036;-73
2022/01/04 12:26:03;;;;;;;;;;;6.20;99.90;;;;;;5092454;28;20044;-73
2022/01/04 12:28:37;;;;;;;3.72;0.63;;;6.20;99.90;;;;;;5127159;27;20018;-73
2022/01/04 12:31:19;;;;;;;5.78;1.27;;;6.30;99.90;;;;;;5075268;28;20150;-73
2022/01/04 12:33:59;;;;;;;8.07;0.80;;;6.30;99.90;;;;;;5105245;28;20077;-73
2022/01/04 12:36:42;;;;;;;7.15;1.10;;;6.30;99.90;;;;;;5094986;28;20480;-73
2022/01/04 12:39:08;;;;;;;;;;;6.30;99.90;;;;;;5090866;28;20032;-73
2022/01/04 12:41:35;;;;;;;2.88;0.70;;;6.30;99.90;;;;;;5108376;28;19969;-73
2022/01/04 12:44:02;;;;;;;4.63;0.80;;;6.40;99.90;;;;;;5108011;28;20047;-73
2022/01/04 12:46:36;;;;;;;3.03;0.52;;;6.50;99.90;;;;;;5091168;28;20056;-73
2022/01/04 12:49:08;;;;;;;4.90;0.65;;;6.50;99.90;;;;;;5142347;27;20118;-73
2022/01/04 12:51:38;;;;;;;4.47;0.68;;;6.50;99.90;;;;;;5095230;28;20047;-73
2022/01/04 12:54:06;;;;;;;4.07;0.73;;;6.50;99.90;;;;;;5086568;28;20122;-73
2022/01/04 12:56:32;;;;;;;5.93;1.00;;;6.50;99.90;;;;;;5094761;28;20043;-73
2022/01/04 12:58:58;;;;;;;3.20;0.70;;;6.60;99.90;;;;;;5110621;28;20403;-73